Charlevoix, MI

8:33 PM EDT on April 01, 2015 (GMT -0400)
1.5 W Ironton | | Change Station
CLOSE
Current Station
Personal Weather Station
Location: Charlevoix, MI
Elevation: 750 ft
Nearby Weather Stations

Elev 750 ft 45.26 °N, 85.22 °W | Updated 26 seconds ago

Clear
Clear
52.1 °F
Feels Like 52.1 °F
N
5.0
Wind Variable Wind from SE
Gusts 7.0 mph

Today
High -- | Low -- °F
--% Chance of Precip.
Yesterday
High -- | Low -- °F
Precip. -- in
7:21 AM 8:08 PM
Waxing Gibbous, 94% visible
Pressure 29.85 in
Visibility 10.0 miles
Clouds Clear
Dew Point 33 °F
Humidity 48%
Rainfall 0.00 in
Snow Depth Not available.
UV 0 out of 12
Pollen 4.70 out of 12
Air Quality Not available.
Flu Activity Not available.
METAR KCVX 020015Z AUTO 14005KT 10SM CLR 12/M02 A2985 RMK AO2 T01201020

More Conditions Fewer Conditions

Pressure 29.85 in
Visibility 10.0 miles
Clouds Clear
Dew Point 33 °F
Humidity 48%
Rainfall 0.00 in
Snow Depth Not available.
UV 0 out of 12
Pollen 4.70 out of 12
Air Quality Not available.
Flu Activity Not available.
METAR KCVX 020015Z AUTO 14005KT 10SM CLR 12/M02 A2985 RMK AO2 T01201020

More Conditions Fewer Conditions

Nowcast | as of 8:00 PM EDT on April 1, 2015

At 9 PM...mostly cloudy. Temperature 46. Southeast winds 8 mph. At 11 PM...mostly cloudy. Temperature 44. Southeast winds 9 mph. At 1 am...mostly cloudy. Temperature 43. Southeast winds 10 mph. At 3 am...mostly cloudy. Chance of thunderstorms. Temperature 43. South winds 13 mph.

×

10-Day Weather Forecast

Almanac

Astronomy

Apr. 01, 2015 Rise Set
Actual Time
Civil Twilight
Nautical Twilight
Astronomical Twilight
Moon
Length of Visible Light
Length of Day
Tomorrow will be .
, % of the Moon is Illuminated

Today's Extremes

State Highs State Lows

Community

WunderPhotos

Upload Photos

1,810,131 photos uploaded!

WunderBlogs® & News

Nearby

Air Quality

  Air Quality AQ Index Pollutant
Not available.

Snow Depth

Station Depth Elevation

Earthquake Activity

City Distance Mag. Time & Date
Minimum magnitude displayed is 2.5.

Coastal Water Temperatures

Place Temperature

Stations

Nearby Weather Stations

Station Location Temp. Windchill Dew Point Humidity Wind Precip. Elev Updated Type